createdAt,value
2018-12-06T00:00:20.492Z,1015.76
2018-12-06T00:01:20.484Z,1015.76
2018-12-06T00:02:20.489Z,1015.74
2018-12-06T00:03:20.456Z,1015.72
2018-12-06T00:04:20.446Z,1015.71
2018-12-06T00:05:20.441Z,1015.70
2018-12-06T00:06:20.427Z,1015.65
2018-12-06T00:07:20.432Z,1015.62
2018-12-06T00:08:20.412Z,1015.61
2018-12-06T00:09:20.437Z,1015.65
2018-12-06T00:10:20.381Z,1015.60
2018-12-06T00:11:20.377Z,1015.60
2018-12-06T00:12:20.371Z,1015.64
2018-12-06T00:13:20.357Z,1015.59
2018-12-06T00:14:20.346Z,1015.59
2018-12-06T00:15:20.346Z,1015.65
2018-12-06T00:16:20.330Z,1015.59
2018-12-06T00:17:20.315Z,1015.61
2018-12-06T00:18:20.303Z,1015.59
2018-12-06T00:19:20.296Z,1015.59
2018-12-06T00:20:20.287Z,1015.54
2018-12-06T00:21:20.275Z,1015.53
2018-12-06T00:22:20.269Z,1015.52
2018-12-06T00:23:20.254Z,1015.53
2018-12-06T00:24:20.244Z,1015.45
2018-12-06T00:25:20.230Z,1015.45
2018-12-06T00:26:20.223Z,1015.42
2018-12-06T00:27:20.213Z,1015.39
2018-12-06T00:28:20.206Z,1015.38
2018-12-06T00:29:20.203Z,1015.39
2018-12-06T00:30:20.180Z,1015.35
2018-12-06T00:31:20.173Z,1015.42
2018-12-06T00:32:20.159Z,1015.40
2018-12-06T00:33:20.147Z,1015.40
2018-12-06T00:34:20.141Z,1015.37
2018-12-06T00:35:20.125Z,1015.40
2018-12-06T00:36:20.111Z,1015.33
2018-12-06T00:37:20.104Z,1015.39
2018-12-06T00:38:20.095Z,1015.37
2018-12-06T00:39:20.091Z,1015.39
2018-12-06T00:40:20.074Z,1015.40
2018-12-06T00:41:20.065Z,1015.38
2018-12-06T00:42:20.054Z,1015.41
2018-12-06T00:43:20.045Z,1015.41
2018-12-06T00:44:20.054Z,1015.39
2018-12-06T00:45:20.022Z,1015.43
2018-12-06T00:46:20.007Z,1015.44
2018-12-06T00:47:20.001Z,1015.39
2018-12-06T00:48:19.987Z,1015.40
2018-12-06T00:49:19.981Z,1015.39
2018-12-06T00:50:19.984Z,1015.41
2018-12-06T00:51:19.961Z,1015.36
2018-12-06T00:52:19.942Z,1015.40
2018-12-06T00:53:19.939Z,1015.36
2018-12-06T00:54:19.924Z,1015.35
2018-12-06T00:55:19.938Z,1015.31
2018-12-06T00:56:19.903Z,1015.35
2018-12-06T00:57:19.902Z,1015.34
2018-12-06T00:58:19.890Z,1015.33
2018-12-06T00:59:19.879Z,1015.27
2018-12-06T01:00:19.866Z,1015.31
2018-12-06T01:01:19.884Z,1015.29
2018-12-06T01:02:19.848Z,1015.32
2018-12-06T01:03:19.831Z,1015.31
2018-12-06T01:04:19.824Z,1015.31
2018-12-06T01:05:19.808Z,1015.30
2018-12-06T01:06:19.802Z,1015.33
2018-12-06T01:07:19.800Z,1015.29
2018-12-06T01:08:19.779Z,1015.36
2018-12-06T01:09:19.806Z,1015.33
2018-12-06T01:10:19.766Z,1015.26
2018-12-06T01:11:19.751Z,1015.31
2018-12-06T01:12:19.737Z,1015.25
2018-12-06T01:13:19.730Z,1015.24
2018-12-06T01:14:19.717Z,1015.31
2018-12-06T01:15:19.723Z,1015.32
2018-12-06T01:16:19.695Z,1015.25
2018-12-06T01:17:19.700Z,1015.23
2018-12-06T01:18:19.675Z,1015.20
2018-12-06T01:19:19.668Z,1015.15
2018-12-06T01:20:19.659Z,1015.17
2018-12-06T01:21:19.650Z,1015.15
2018-12-06T01:22:19.633Z,1015.13
2018-12-06T01:23:19.632Z,1015.15
2018-12-06T01:24:19.613Z,1015.13
2018-12-06T01:25:19.602Z,1015.16
2018-12-06T01:26:19.596Z,1015.14
2018-12-06T01:27:19.600Z,1015.09
2018-12-06T01:28:19.575Z,1015.06
2018-12-06T01:29:19.568Z,1015.05
2018-12-06T01:30:19.554Z,1015.03
2018-12-06T01:31:19.545Z,1015.03
2018-12-06T01:32:19.546Z,1015.01
2018-12-06T01:33:19.523Z,1015.00
2018-12-06T01:34:19.512Z,1015.01
2018-12-06T01:35:19.498Z,1015.00
2018-12-06T01:36:19.533Z,1014.97
2018-12-06T01:37:19.480Z,1014.95
2018-12-06T01:38:19.467Z,1014.93
2018-12-06T01:39:19.459Z,1014.94
2018-12-06T01:40:19.445Z,1014.94
2018-12-06T01:41:19.437Z,1014.92
2018-12-06T01:42:19.439Z,1014.90
2018-12-06T01:43:19.428Z,1014.94
2018-12-06T01:44:19.406Z,1014.85
2018-12-06T01:45:19.400Z,1014.92
2018-12-06T01:46:19.392Z,1014.89
2018-12-06T01:47:19.422Z,1014.88
2018-12-06T01:48:19.383Z,1014.82
2018-12-06T01:49:19.360Z,1014.91
2018-12-06T01:50:19.343Z,1014.89
2018-12-06T01:51:19.338Z,1014.91
2018-12-06T01:52:19.329Z,1014.87
2018-12-06T01:53:19.332Z,1014.88
2018-12-06T01:54:19.328Z,1014.88
2018-12-06T01:55:19.302Z,1014.85
2018-12-06T01:56:19.291Z,1014.84
2018-12-06T01:57:19.274Z,1014.87
2018-12-06T01:58:19.258Z,1014.84
2018-12-06T01:59:19.279Z,1014.82
2018-12-06T02:00:19.241Z,1014.83
2018-12-06T02:01:19.238Z,1014.76
2018-12-06T02:02:19.219Z,1014.76
2018-12-06T02:03:19.207Z,1014.76
2018-12-06T02:04:19.208Z,1014.71
2018-12-06T02:05:19.327Z,1014.74
2018-12-06T02:06:19.183Z,1014.75
2018-12-06T02:07:19.177Z,1014.73
2018-12-06T02:08:19.160Z,1014.69
2018-12-06T02:09:19.148Z,1014.71
2018-12-06T02:10:19.141Z,1014.73
2018-12-06T02:11:19.162Z,1014.74
2018-12-06T02:12:19.115Z,1014.75
2018-12-06T02:13:19.112Z,1014.75
2018-12-06T02:14:19.104Z,1014.78
2018-12-06T02:15:19.090Z,1014.74
2018-12-06T02:16:19.072Z,1014.72
2018-12-06T02:17:19.080Z,1014.71
2018-12-06T02:18:19.105Z,1014.70
2018-12-06T02:19:19.052Z,1014.70
2018-12-06T02:20:19.034Z,1014.71
2018-12-06T02:21:19.045Z,1014.74
2018-12-06T02:22:19.024Z,1014.75
2018-12-06T02:23:19.003Z,1014.70
2018-12-06T02:24:18.995Z,1014.68
2018-12-06T02:25:18.988Z,1014.71
2018-12-06T02:26:18.980Z,1014.67
2018-12-06T02:27:18.975Z,1014.65
2018-12-06T02:28:18.954Z,1014.66
2018-12-06T02:29:18.940Z,1014.61
2018-12-06T02:30:18.934Z,1014.61
2018-12-06T02:31:18.917Z,1014.64
2018-12-06T02:32:18.956Z,1014.60
2018-12-06T02:33:18.904Z,1014.57
2018-12-06T02:34:18.892Z,1014.53
2018-12-06T02:35:18.874Z,1014.52
2018-12-06T02:36:18.866Z,1014.51
2018-12-06T02:37:18.861Z,1014.54
2018-12-06T02:38:18.891Z,1014.50
2018-12-06T02:39:18.844Z,1014.47
2018-12-06T02:40:18.847Z,1014.45
2018-12-06T02:41:18.813Z,1014.42
2018-12-06T02:42:18.817Z,1014.42
2018-12-06T02:43:18.797Z,1014.35
2018-12-06T02:44:18.832Z,1014.33
2018-12-06T02:45:18.776Z,1014.27
2018-12-06T02:46:18.762Z,1014.31
2018-12-06T02:47:18.751Z,1014.25
2018-12-06T02:48:18.745Z,1014.23
2018-12-06T02:49:18.734Z,1014.20
2018-12-06T02:50:18.762Z,1014.18
2018-12-06T02:51:18.708Z,1014.18
2018-12-06T02:52:18.704Z,1014.13
2018-12-06T02:53:18.715Z,1014.06
2018-12-06T02:54:18.683Z,1014.03
2018-12-06T02:55:18.666Z,1014.06
2018-12-06T02:56:18.678Z,1014.00
2018-12-06T02:57:18.645Z,1013.99
2018-12-06T02:58:18.639Z,1013.93
2018-12-06T02:59:18.624Z,1013.94
2018-12-06T03:00:18.619Z,1013.88
2018-12-06T03:01:18.614Z,1013.86
2018-12-06T03:02:18.602Z,1013.83
2018-12-06T03:03:18.591Z,1013.75
2018-12-06T03:04:18.573Z,1013.77
2018-12-06T03:05:18.568Z,1013.69
2018-12-06T03:06:18.572Z,1013.69
2018-12-06T03:07:18.546Z,1013.65
2018-12-06T03:08:18.542Z,1013.66
2018-12-06T03:09:18.521Z,1013.56
2018-12-06T03:10:18.519Z,1013.57
2018-12-06T03:11:18.507Z,1013.58
2018-12-06T03:12:18.547Z,1013.54
2018-12-06T03:13:18.484Z,1013.50
2018-12-06T03:14:18.474Z,1013.48
2018-12-06T03:15:18.468Z,1013.47
2018-12-06T03:16:18.453Z,1013.43
2018-12-06T03:17:18.438Z,1013.40
2018-12-06T03:18:18.442Z,1013.40
2018-12-06T03:19:18.426Z,1013.39
2018-12-06T03:20:18.405Z,1013.37
2018-12-06T03:21:18.421Z,1013.38
2018-12-06T03:22:18.392Z,1013.32
2018-12-06T03:23:18.389Z,1013.39
2018-12-06T03:24:18.365Z,1013.36
2018-12-06T03:25:18.354Z,1013.30
2018-12-06T03:26:18.342Z,1013.29
2018-12-06T03:27:18.334Z,1013.28
2018-12-06T03:28:18.334Z,1013.27
2018-12-06T03:29:18.357Z,1013.27
2018-12-06T03:30:18.309Z,1013.18
2018-12-06T03:31:18.315Z,1013.15
2018-12-06T03:32:18.287Z,1013.16
2018-12-06T03:33:18.294Z,1013.11
2018-12-06T03:34:18.265Z,1013.09
2018-12-06T03:35:18.264Z,1013.09
2018-12-06T03:36:18.239Z,1013.06
2018-12-06T03:37:18.237Z,1013.10
2018-12-06T03:38:18.230Z,1013.00
2018-12-06T03:39:18.208Z,1013.02
2018-12-06T03:40:18.213Z,1013.02
2018-12-06T03:41:18.187Z,1013.04
2018-12-06T03:42:18.176Z,1013.02
2018-12-06T03:43:18.176Z,1013.03
2018-12-06T03:44:18.156Z,1012.98
2018-12-06T03:45:18.175Z,1012.99
2018-12-06T03:46:18.139Z,1012.94
2018-12-06T03:47:18.122Z,1012.91
2018-12-06T03:48:18.116Z,1012.91
2018-12-06T03:49:18.108Z,1012.85
2018-12-06T03:50:18.101Z,1012.81
2018-12-06T03:51:18.097Z,1012.79
2018-12-06T03:52:18.074Z,1012.79
2018-12-06T03:53:18.066Z,1012.78
2018-12-06T03:54:18.052Z,1012.76
2018-12-06T03:55:18.046Z,1012.70
2018-12-06T03:56:18.042Z,1012.70
2018-12-06T03:57:18.048Z,1012.55
2018-12-06T03:58:25.601Z,1012.61
2018-12-06T03:59:25.631Z,1012.57
2018-12-06T04:00:25.684Z,1012.54
2018-12-06T04:01:25.021Z,1012.50
2018-12-06T04:02:25.752Z,1012.46
2018-12-06T04:03:25.789Z,1012.51
2018-12-06T04:04:25.825Z,1012.51
2018-12-06T04:05:25.863Z,1012.49
2018-12-06T04:06:25.017Z,1012.45
2018-12-06T04:07:17.919Z,1012.47
2018-12-06T04:08:17.907Z,1012.44
2018-12-06T04:09:25.927Z,1012.45
2018-12-06T04:10:25.469Z,1012.43
2018-12-06T04:11:25.511Z,1012.41
2018-12-06T04:12:24.951Z,1012.39
2018-12-06T04:13:17.857Z,1012.39
2018-12-06T04:14:17.840Z,1012.32
2018-12-06T04:15:25.585Z,1012.36
2018-12-06T04:16:17.819Z,1012.34
2018-12-06T04:17:17.831Z,1012.33
2018-12-06T04:18:17.848Z,1012.29
2018-12-06T04:19:17.794Z,1012.23
2018-12-06T04:20:17.780Z,1012.24
2018-12-06T04:21:17.773Z,1012.18
2018-12-06T04:22:17.763Z,1012.12
2018-12-06T04:23:17.746Z,1012.15
2018-12-06T04:24:17.788Z,1012.10
2018-12-06T04:25:17.730Z,1012.13
2018-12-06T04:26:17.722Z,1012.07
2018-12-06T04:27:17.706Z,1012.09
2018-12-06T04:28:17.694Z,1012.10
2018-12-06T04:29:17.689Z,1012.04
2018-12-06T04:30:17.685Z,1012.00
2018-12-06T04:31:17.663Z,1011.97
2018-12-06T04:32:17.714Z,1012.03
2018-12-06T04:33:17.646Z,1011.99
2018-12-06T04:34:17.641Z,1012.00
2018-12-06T04:35:17.663Z,1011.93
2018-12-06T04:36:17.617Z,1011.95
2018-12-06T04:37:17.607Z,1011.93
2018-12-06T04:38:17.592Z,1011.90
2018-12-06T04:39:17.579Z,1011.95
2018-12-06T04:40:17.571Z,1011.90
2018-12-06T04:41:17.604Z,1011.88
2018-12-06T04:42:17.565Z,1011.93
2018-12-06T04:43:17.543Z,1011.85
2018-12-06T04:44:17.526Z,1011.86
2018-12-06T04:45:17.517Z,1011.90
2018-12-06T04:46:17.507Z,1011.81
2018-12-06T04:47:17.509Z,1011.82
2018-12-06T04:48:21.867Z,1011.81
2018-12-06T04:49:17.473Z,1011.77
2018-12-06T04:50:17.468Z,1011.77
2018-12-06T04:51:17.457Z,1011.74
2018-12-06T04:52:17.459Z,1011.73
2018-12-06T04:53:17.439Z,1011.72
2018-12-06T04:54:17.435Z,1011.71
2018-12-06T04:55:17.421Z,1011.71
2018-12-06T04:56:17.413Z,1011.75
2018-12-06T04:57:17.390Z,1011.71
2018-12-06T04:58:17.389Z,1011.72
2018-12-06T04:59:17.406Z,1011.71
2018-12-06T05:00:17.365Z,1011.69
2018-12-06T05:01:17.354Z,1011.71
2018-12-06T05:02:17.336Z,1011.72
2018-12-06T05:03:17.329Z,1011.70
2018-12-06T05:04:17.319Z,1011.73
2018-12-06T05:05:17.320Z,1011.76
2018-12-06T05:06:17.295Z,1011.79
2018-12-06T05:07:17.281Z,1011.75
2018-12-06T05:08:17.314Z,1011.74
2018-12-06T05:09:17.263Z,1011.72
2018-12-06T05:10:17.287Z,1011.68
2018-12-06T05:11:17.244Z,1011.71
2018-12-06T05:12:17.236Z,1011.67
2018-12-06T05:13:17.219Z,1011.68
2018-12-06T05:14:17.213Z,1011.69
2018-12-06T05:15:17.198Z,1011.66
2018-12-06T05:16:17.249Z,1011.63
2018-12-06T05:17:17.185Z,1011.62
2018-12-06T05:18:17.172Z,1011.61
2018-12-06T05:19:17.156Z,1011.66
2018-12-06T05:20:17.146Z,1011.74
2018-12-06T05:21:17.143Z,1011.68
2018-12-06T05:22:17.140Z,1011.71
2018-12-06T05:23:17.112Z,1011.70
2018-12-06T05:24:17.102Z,1011.70
2018-12-06T05:25:17.091Z,1011.65
2018-12-06T05:26:17.094Z,1011.67
2018-12-06T05:27:17.081Z,1011.71
2018-12-06T05:28:17.064Z,1011.66
2018-12-06T05:29:17.051Z,1011.68
2018-12-06T05:30:17.042Z,1011.68
2018-12-06T05:31:17.031Z,1011.68
2018-12-06T05:32:17.025Z,1011.74
2018-12-06T05:33:17.010Z,1011.75
2018-12-06T05:34:16.998Z,1011.76
2018-12-06T05:35:16.988Z,1011.74
2018-12-06T05:36:16.977Z,1011.77
2018-12-06T05:37:16.989Z,1011.79
2018-12-06T05:38:16.958Z,1011.75
2018-12-06T05:39:16.948Z,1011.78
2018-12-06T05:40:16.929Z,1011.79
2018-12-06T05:41:16.926Z,1011.78
2018-12-06T05:42:16.910Z,1011.81
2018-12-06T05:43:16.918Z,1011.83
2018-12-06T05:44:16.919Z,1011.81
2018-12-06T05:45:16.884Z,1011.79
2018-12-06T05:46:16.868Z,1011.84
2018-12-06T05:47:16.870Z,1011.77
2018-12-06T05:48:16.845Z,1011.78
2018-12-06T05:49:16.837Z,1011.81
2018-12-06T05:50:16.869Z,1011.83
2018-12-06T05:51:16.820Z,1011.79
2018-12-06T05:52:16.808Z,1011.82
2018-12-06T05:53:16.792Z,1011.80
2018-12-06T05:54:16.799Z,1011.82
2018-12-06T05:55:16.779Z,1011.77
2018-12-06T05:56:16.780Z,1011.73
2018-12-06T05:57:16.763Z,1011.72
2018-12-06T05:58:16.741Z,1011.71
2018-12-06T05:59:16.730Z,1011.72
2018-12-06T06:00:16.723Z,1011.73
2018-12-06T06:01:16.716Z,1011.69
2018-12-06T06:02:16.707Z,1011.77
2018-12-06T06:03:16.737Z,1011.71
2018-12-06T06:04:16.686Z,1011.70
2018-12-06T06:05:16.670Z,1011.67
2018-12-06T06:06:16.656Z,1011.70
2018-12-06T06:07:16.650Z,1011.70
2018-12-06T06:08:16.640Z,1011.68
2018-12-06T06:09:16.645Z,1011.66
2018-12-06T06:10:16.618Z,1011.72
2018-12-06T06:11:16.613Z,1011.72
2018-12-06T06:12:16.600Z,1011.70
2018-12-06T06:13:16.588Z,1011.69
2018-12-06T06:14:16.612Z,1011.68
2018-12-06T06:15:16.562Z,1011.70
2018-12-06T06:16:16.579Z,1011.72
2018-12-06T06:17:16.540Z,1011.72
2018-12-06T06:18:16.533Z,1011.73
2018-12-06T06:19:16.524Z,1011.73
2018-12-06T06:20:16.550Z,1011.70
2018-12-06T06:21:16.504Z,1011.76
2018-12-06T06:22:16.486Z,1011.67
2018-12-06T06:23:16.478Z,1011.73
2018-12-06T06:24:16.474Z,1011.75
2018-12-06T06:25:16.462Z,1011.73
2018-12-06T06:26:16.458Z,1011.73
2018-12-06T06:27:16.440Z,1011.73
2018-12-06T06:28:16.424Z,1011.76
2018-12-06T06:29:16.413Z,1011.72
2018-12-06T06:30:16.435Z,1011.75
2018-12-06T06:31:16.401Z,1011.69
2018-12-06T06:32:16.388Z,1011.68
2018-12-06T06:33:16.376Z,1011.67
2018-12-06T06:34:16.366Z,1011.67
2018-12-06T06:35:16.355Z,1011.63
2018-12-06T06:36:16.353Z,1011.61
2018-12-06T06:37:16.373Z,1011.55
2018-12-06T06:38:16.320Z,1011.55
2018-12-06T06:39:16.308Z,1011.55
2018-12-06T06:40:16.299Z,1011.57
2018-12-06T06:41:16.294Z,1011.54
2018-12-06T06:42:16.279Z,1011.53
2018-12-06T06:43:16.286Z,1011.55
2018-12-06T06:44:16.255Z,1011.58
2018-12-06T06:45:16.245Z,1011.58
2018-12-06T06:46:16.241Z,1011.60
2018-12-06T06:47:16.237Z,1011.61
2018-12-06T06:48:16.220Z,1011.65
2018-12-06T06:49:16.208Z,1011.66
2018-12-06T06:50:16.191Z,1011.66
2018-12-06T06:51:16.181Z,1011.64
2018-12-06T06:52:16.177Z,1011.66
2018-12-06T06:53:16.200Z,1011.63
2018-12-06T06:54:16.154Z,1011.57
2018-12-06T06:55:16.145Z,1011.57
2018-12-06T06:56:16.149Z,1011.53
2018-12-06T06:57:16.123Z,1011.52
2018-12-06T06:58:16.111Z,1011.51
2018-12-06T06:59:16.110Z,1011.53
2018-12-06T07:00:16.084Z,1011.51
2018-12-06T07:01:16.089Z,1011.54
2018-12-06T07:02:16.065Z,1011.55
2018-12-06T07:03:16.055Z,1011.63
2018-12-06T07:04:16.046Z,1011.65
2018-12-06T07:05:16.047Z,1011.68
2018-12-06T07:06:16.028Z,1011.70
2018-12-06T07:07:16.013Z,1011.69
2018-12-06T07:08:16.005Z,1011.65
2018-12-06T07:09:15.996Z,1011.61
2018-12-06T07:10:15.995Z,1011.58
2018-12-06T07:11:15.974Z,1011.56
2018-12-06T07:12:15.968Z,1011.52
2018-12-06T07:13:15.959Z,1011.52
2018-12-06T07:14:15.946Z,1011.55
2018-12-06T07:15:15.932Z,1011.60
2018-12-06T07:16:15.963Z,1011.60
2018-12-06T07:17:15.913Z,1011.62
2018-12-06T07:18:15.900Z,1011.60
2018-12-06T07:19:15.903Z,1011.59
2018-12-06T07:20:15.875Z,1011.54
2018-12-06T07:21:15.865Z,1011.52
2018-12-06T07:22:15.867Z,1011.50
2018-12-06T07:23:15.844Z,1011.48
2018-12-06T07:24:15.832Z,1011.50
2018-12-06T07:25:15.823Z,1011.47
2018-12-06T07:26:15.811Z,1011.41
2018-12-06T07:27:15.821Z,1011.43
2018-12-06T07:28:15.798Z,1011.42
2018-12-06T07:29:15.787Z,1011.42
2018-12-06T07:30:15.777Z,1011.42
2018-12-06T07:31:15.759Z,1011.41
2018-12-06T07:32:15.778Z,1011.34
2018-12-06T07:33:15.738Z,1011.34
2018-12-06T07:34:15.727Z,1011.35
2018-12-06T07:35:15.719Z,1011.33
2018-12-06T07:36:15.706Z,1011.27
2018-12-06T07:37:15.719Z,1011.25
2018-12-06T07:38:15.690Z,1011.23
2018-12-06T07:39:15.685Z,1011.24
2018-12-06T07:40:15.665Z,1011.24
2018-12-06T07:41:15.656Z,1011.21
2018-12-06T07:42:15.662Z,1011.22
2018-12-06T07:43:15.642Z,1011.20
2018-12-06T07:44:15.654Z,1011.21
2018-12-06T07:45:15.611Z,1011.14
2018-12-06T07:46:15.602Z,1011.23
2018-12-06T07:47:15.596Z,1011.18
2018-12-06T07:48:15.581Z,1011.14
2018-12-06T07:49:15.580Z,1011.13
2018-12-06T07:50:15.592Z,1011.08
2018-12-06T07:51:15.550Z,1011.09
2018-12-06T07:52:15.544Z,1011.02
2018-12-06T07:53:15.533Z,1010.98
2018-12-06T07:54:15.518Z,1010.98
2018-12-06T07:55:15.516Z,1010.92
2018-12-06T07:56:15.509Z,1010.92
2018-12-06T07:57:15.491Z,1010.84
2018-12-06T07:58:15.480Z,1010.86
2018-12-06T07:59:15.472Z,1010.87
2018-12-06T08:00:15.455Z,1010.83
2018-12-06T08:01:15.469Z,1010.75
2018-12-06T08:02:15.434Z,1010.76
2018-12-06T08:03:15.429Z,1010.70
2018-12-06T08:04:15.418Z,1010.68
2018-12-06T08:05:15.402Z,1010.62
2018-12-06T08:06:15.434Z,1010.50
2018-12-06T08:07:15.382Z,1010.46
2018-12-06T08:08:15.381Z,1010.45
2018-12-06T08:09:15.362Z,1010.37
2018-12-06T08:10:15.373Z,1010.36
2018-12-06T08:11:15.344Z,1010.32
2018-12-06T08:12:15.340Z,1010.29
2018-12-06T08:13:15.323Z,1010.34
2018-12-06T08:14:15.307Z,1010.29
2018-12-06T08:15:15.300Z,1010.37
2018-12-06T08:16:15.297Z,1010.39
2018-12-06T08:17:15.312Z,1010.48
2018-12-06T08:18:15.276Z,1010.54
2018-12-06T08:19:15.257Z,1010.69
2018-12-06T08:20:15.264Z,1010.74
2018-12-06T08:21:15.238Z,1010.82
2018-12-06T08:22:15.232Z,1010.89
2018-12-06T08:23:15.222Z,1010.94
2018-12-06T08:24:15.214Z,1010.94
2018-12-06T08:25:16.412Z,1010.91
2018-12-06T08:26:15.184Z,1010.94
2018-12-06T08:27:15.176Z,1010.82
2018-12-06T08:28:15.165Z,1010.81
2018-12-06T08:29:15.167Z,1010.78
2018-12-06T08:30:15.151Z,1010.70
2018-12-06T08:31:15.146Z,1010.73
2018-12-06T08:32:15.126Z,1010.71
2018-12-06T08:33:15.115Z,1010.73
2018-12-06T08:34:15.136Z,1010.72
2018-12-06T08:35:15.100Z,1010.71
2018-12-06T08:36:15.076Z,1010.73
2018-12-06T08:37:15.074Z,1010.83
2018-12-06T08:38:15.061Z,1010.86
2018-12-06T08:39:15.050Z,1010.94
2018-12-06T08:40:15.047Z,1010.99
2018-12-06T08:41:15.031Z,1011.05
2018-12-06T08:42:15.044Z,1011.10
2018-12-06T08:43:15.011Z,1011.09
2018-12-06T08:44:21.251Z,1011.11
2018-12-06T08:45:15.980Z,1011.08
2018-12-06T08:46:14.970Z,1011.04
2018-12-06T08:47:15.066Z,1011.03
2018-12-06T08:48:14.964Z,1011.01
2018-12-06T08:49:14.944Z,1010.91
2018-12-06T08:50:14.935Z,1010.96
2018-12-06T08:51:14.959Z,1010.98
2018-12-06T08:52:14.917Z,1010.97
2018-12-06T08:53:14.901Z,1011.08
2018-12-06T08:54:14.890Z,1011.12
2018-12-06T08:55:14.881Z,1011.18
2018-12-06T08:56:14.870Z,1011.23
2018-12-06T08:57:14.917Z,1011.24
2018-12-06T08:58:14.848Z,1011.30
2018-12-06T08:59:14.832Z,1011.34
2018-12-06T09:00:14.828Z,1011.37
2018-12-06T09:01:14.811Z,1011.40
2018-12-06T09:02:14.808Z,1011.43
2018-12-06T09:03:14.794Z,1011.45
2018-12-06T09:04:14.784Z,1011.47
2018-12-06T09:05:14.774Z,1011.53
2018-12-06T09:06:14.764Z,1011.51
2018-12-06T09:07:14.938Z,1011.58
2018-12-06T09:08:14.752Z,1011.54
2018-12-06T09:09:14.727Z,1011.57
2018-12-06T09:10:14.720Z,1011.57
2018-12-06T09:11:14.709Z,1011.56
2018-12-06T09:12:14.698Z,1011.53
2018-12-06T09:13:14.693Z,1011.50
2018-12-06T09:14:14.675Z,1011.49
2018-12-06T09:15:14.668Z,1011.52
2018-12-06T09:16:16.310Z,1011.49
2018-12-06T09:17:14.647Z,1011.53
2018-12-06T09:18:14.637Z,1011.51
2018-12-06T09:19:14.827Z,1011.47
2018-12-06T09:20:14.610Z,1011.49
2018-12-06T09:21:14.613Z,1011.47
2018-12-06T09:22:14.587Z,1011.47
2018-12-06T09:23:14.625Z,1011.48
2018-12-06T09:24:14.568Z,1011.47
2018-12-06T09:25:20.826Z,1011.47
2018-12-06T09:26:15.544Z,1011.55
2018-12-06T09:27:14.540Z,1011.55
2018-12-06T09:28:14.531Z,1011.52
2018-12-06T09:29:14.530Z,1011.53
2018-12-06T09:30:14.515Z,1011.51
2018-12-06T09:31:14.541Z,1011.54
2018-12-06T09:32:14.501Z,1011.52
2018-12-06T09:33:14.498Z,1011.54
2018-12-06T09:34:14.466Z,1011.51
2018-12-06T09:35:14.468Z,1011.53
2018-12-06T09:36:14.438Z,1011.50
2018-12-06T09:37:14.427Z,1011.52
2018-12-06T09:38:14.423Z,1011.49
2018-12-06T09:39:14.412Z,1011.53
2018-12-06T09:40:14.415Z,1011.55
2018-12-06T09:41:14.390Z,1011.52
2018-12-06T09:42:14.381Z,1011.52
2018-12-06T09:43:14.365Z,1011.53
2018-12-06T09:44:14.353Z,1011.53
2018-12-06T09:45:14.359Z,1011.51
2018-12-06T09:46:14.332Z,1011.51
2018-12-06T09:47:14.337Z,1011.46
2018-12-06T09:48:14.315Z,1011.49
2018-12-06T09:49:14.301Z,1011.47
2018-12-06T09:50:14.296Z,1011.48
2018-12-06T09:51:14.280Z,1011.47
2018-12-06T09:52:14.282Z,1011.51
2018-12-06T09:53:14.268Z,1011.49
2018-12-06T09:54:14.257Z,1011.52
2018-12-06T09:55:14.238Z,1011.51
2018-12-06T09:56:14.239Z,1011.46
2018-12-06T09:57:14.219Z,1011.47
2018-12-06T09:58:14.206Z,1011.46
2018-12-06T09:59:14.201Z,1011.43
2018-12-06T10:00:14.193Z,1011.42
2018-12-06T10:01:14.183Z,1011.39
2018-12-06T10:02:14.163Z,1011.38
2018-12-06T10:03:14.172Z,1011.36
2018-12-06T10:04:14.149Z,1011.35
2018-12-06T10:05:14.150Z,1011.34
2018-12-06T10:06:14.122Z,1011.32
2018-12-06T10:07:14.114Z,1011.30
2018-12-06T10:08:14.135Z,1011.37
2018-12-06T10:09:14.089Z,1011.38
2018-12-06T10:10:14.087Z,1011.37
2018-12-06T10:11:14.079Z,1011.36
2018-12-06T10:12:14.065Z,1011.36
2018-12-06T10:13:14.053Z,1011.40
2018-12-06T10:14:14.138Z,1011.37
2018-12-06T10:15:14.031Z,1011.34
2018-12-06T10:16:14.016Z,1011.33
2018-12-06T10:17:14.013Z,1011.30
2018-12-06T10:18:14.002Z,1011.32
2018-12-06T10:19:13.986Z,1011.28
2018-12-06T10:20:13.989Z,1011.27
2018-12-06T10:21:13.965Z,1011.26
2018-12-06T10:22:13.958Z,1011.28
2018-12-06T10:23:13.944Z,1011.26
2018-12-06T10:24:13.932Z,1011.26
2018-12-06T10:25:13.964Z,1011.19
2018-12-06T10:26:13.914Z,1011.13
2018-12-06T10:27:13.901Z,1011.14
2018-12-06T10:28:13.894Z,1011.11
2018-12-06T10:29:13.889Z,1011.07
2018-12-06T10:30:13.896Z,1011.07
2018-12-06T10:31:13.864Z,1011.05
2018-12-06T10:32:13.862Z,1011.06
2018-12-06T10:33:13.839Z,1011.11
2018-12-06T10:34:13.825Z,1011.09
2018-12-06T10:35:13.816Z,1011.07
2018-12-06T10:36:13.824Z,1011.04
2018-12-06T10:37:13.819Z,1011.06
2018-12-06T10:38:13.786Z,1011.06
2018-12-06T10:39:13.783Z,1011.03
2018-12-06T10:40:13.770Z,1010.99
2018-12-06T10:41:13.757Z,1010.92
2018-12-06T10:42:13.740Z,1010.93
2018-12-06T10:43:13.744Z,1010.88
2018-12-06T10:44:13.733Z,1010.86
2018-12-06T10:45:13.710Z,1010.85
2018-12-06T10:46:13.701Z,1010.83
2018-12-06T10:47:13.699Z,1010.81
2018-12-06T10:48:13.709Z,1010.83
2018-12-06T10:49:13.677Z,1010.85
2018-12-06T10:50:13.663Z,1010.82
2018-12-06T10:51:13.653Z,1010.82
2018-12-06T10:52:13.637Z,1010.82
2018-12-06T10:53:13.629Z,1010.82
2018-12-06T10:54:13.633Z,1010.86
2018-12-06T10:55:13.620Z,1010.84
2018-12-06T10:56:13.602Z,1010.83
2018-12-06T10:57:13.586Z,1010.82
2018-12-06T10:58:13.579Z,1010.81
2018-12-06T10:59:13.564Z,1010.71
2018-12-06T11:00:13.565Z,1010.69
2018-12-06T11:01:13.542Z,1010.65
2018-12-06T11:02:13.544Z,1010.64
2018-12-06T11:03:13.529Z,1010.61
2018-12-06T11:04:13.511Z,1010.59
2018-12-06T11:05:13.518Z,1010.54
2018-12-06T11:06:13.496Z,1010.60
2018-12-06T11:07:13.492Z,1010.55
2018-12-06T11:08:13.486Z,1010.53
2018-12-06T11:09:13.463Z,1010.49
2018-12-06T11:10:13.493Z,1010.47
2018-12-06T11:11:13.436Z,1010.42
2018-12-06T11:12:13.425Z,1010.41
2018-12-06T11:13:13.415Z,1010.37
2018-12-06T11:14:13.406Z,1010.41
2018-12-06T11:15:13.398Z,1010.38
2018-12-06T11:16:13.392Z,1010.39
2018-12-06T11:17:13.374Z,1010.40
2018-12-06T11:18:13.368Z,1010.40
2018-12-06T11:19:13.365Z,1010.33
2018-12-06T11:20:13.339Z,1010.27
2018-12-06T11:21:13.343Z,1010.25
2018-12-06T11:22:13.324Z,1010.30
2018-12-06T11:23:21.152Z,1010.28
2018-12-06T11:24:13.304Z,1010.24
2018-12-06T11:25:13.287Z,1010.26
2018-12-06T11:26:13.289Z,1010.22
2018-12-06T11:27:13.308Z,1010.19
2018-12-06T11:28:13.255Z,1010.18
2018-12-06T11:29:21.184Z,1010.20
2018-12-06T11:30:13.266Z,1010.15
2018-12-06T11:31:13.226Z,1010.16
2018-12-06T11:32:20.256Z,1010.17
2018-12-06T11:33:13.202Z,1010.15
2018-12-06T11:34:13.191Z,1010.14
2018-12-06T11:35:13.181Z,1010.12
2018-12-06T11:36:13.169Z,1010.14
2018-12-06T11:37:13.160Z,1010.16
2018-12-06T11:38:13.192Z,1010.22
2018-12-06T11:39:13.146Z,1010.21
2018-12-06T11:40:13.134Z,1010.22
2018-12-06T11:41:13.125Z,1010.25
2018-12-06T11:42:13.110Z,1010.27
2018-12-06T11:43:13.098Z,1010.25
2018-12-06T11:44:13.100Z,1010.30
2018-12-06T11:45:13.081Z,1010.33
2018-12-06T11:46:13.070Z,1010.34
2018-12-06T11:47:13.056Z,1010.30
2018-12-06T11:48:13.071Z,1010.31
2018-12-06T11:49:13.108Z,1010.35
2018-12-06T11:50:13.022Z,1010.33
2018-12-06T11:51:13.015Z,1010.34
2018-12-06T11:52:13.725Z,1010.25
2018-12-06T11:53:12.994Z,1010.30
2018-12-06T11:54:13.016Z,1010.28
2018-12-06T11:55:12.990Z,1010.27
2018-12-06T11:56:12.956Z,1010.28
2018-12-06T11:57:12.953Z,1010.21
2018-12-06T11:58:12.942Z,1010.24
2018-12-06T11:59:12.925Z,1010.23
2018-12-06T12:00:12.959Z,1010.16
2018-12-06T12:01:12.908Z,1010.18
2018-12-06T12:02:12.896Z,1010.15
2018-12-06T12:03:12.887Z,1010.18
2018-12-06T12:04:12.870Z,1010.20
2018-12-06T12:05:12.860Z,1010.16